sensor_id;sensor_type;location;lat;lon;timestamp;temperature;humidity
62583;DHT22;48641;51.676;5.808;2023-04-24T00:00:16;16.70;65.30
62583;DHT22;48641;51.676;5.808;2023-04-24T00:02:43;16.60;65.30
62583;DHT22;48641;51.676;5.808;2023-04-24T00:05:13;16.70;65.40
62583;DHT22;48641;51.676;5.808;2023-04-24T00:07:40;16.60;65.30
62583;DHT22;48641;51.676;5.808;2023-04-24T00:10:06;16.60;65.30
62583;DHT22;48641;51.676;5.808;2023-04-24T00:12:32;16.60;65.30
62583;DHT22;48641;51.676;5.808;2023-04-24T00:14:58;16.60;65.30
62583;DHT22;48641;51.676;5.808;2023-04-24T00:17:23;16.60;65.30
62583;DHT22;48641;51.676;5.808;2023-04-24T00:19:49;16.60;65.30
62583;DHT22;48641;51.676;5.808;2023-04-24T00:22:24;16.60;65.30
62583;DHT22;48641;51.676;5.808;2023-04-24T00:24:50;16.60;65.30
62583;DHT22;48641;51.676;5.808;2023-04-24T00:27:15;16.60;65.30
62583;DHT22;48641;51.676;5.808;2023-04-24T00:29:41;16.60;65.30
62583;DHT22;48641;51.676;5.808;2023-04-24T00:32:06;16.60;65.30
62583;DHT22;48641;51.676;5.808;2023-04-24T00:34:32;16.60;65.30
62583;DHT22;48641;51.676;5.808;2023-04-24T00:36:58;16.60;65.30
62583;DHT22;48641;51.676;5.808;2023-04-24T00:39:23;16.60;65.30
62583;DHT22;48641;51.676;5.808;2023-04-24T00:41:49;16.60;65.30
62583;DHT22;48641;51.676;5.808;2023-04-24T00:44:16;16.60;65.30
62583;DHT22;48641;51.676;5.808;2023-04-24T00:46:42;16.60;65.30
62583;DHT22;48641;51.676;5.808;2023-04-24T00:49:08;16.60;65.30
62583;DHT22;48641;51.676;5.808;2023-04-24T00:51:33;16.60;65.30
62583;DHT22;48641;51.676;5.808;2023-04-24T00:54:00;16.60;65.30
62583;DHT22;48641;51.676;5.808;2023-04-24T00:56:26;16.60;65.20
62583;DHT22;48641;51.676;5.808;2023-04-24T00:58:52;16.60;65.30
62583;DHT22;48641;51.676;5.808;2023-04-24T01:01:20;16.60;65.20
62583;DHT22;48641;51.676;5.808;2023-04-24T01:03:46;16.60;65.20
62583;DHT22;48641;51.676;5.808;2023-04-24T01:06:13;16.60;65.20
62583;DHT22;48641;51.676;5.808;2023-04-24T01:08:39;16.60;65.20
62583;DHT22;48641;51.676;5.808;2023-04-24T01:11:06;16.60;65.20
62583;DHT22;48641;51.676;5.808;2023-04-24T01:13:32;16.60;65.20
62583;DHT22;48641;51.676;5.808;2023-04-24T01:15:59;16.60;65.20
62583;DHT22;48641;51.676;5.808;2023-04-24T01:18:24;16.50;65.10
62583;DHT22;48641;51.676;5.808;2023-04-24T01:20:53;16.60;65.20
62583;DHT22;48641;51.676;5.808;2023-04-24T01:23:19;16.60;65.20
62583;DHT22;48641;51.676;5.808;2023-04-24T01:25:45;16.50;65.10
62583;DHT22;48641;51.676;5.808;2023-04-24T01:28:11;16.50;65.20
62583;DHT22;48641;51.676;5.808;2023-04-24T01:30:39;16.60;65.20
62583;DHT22;48641;51.676;5.808;2023-04-24T01:33:05;16.50;65.20
62583;DHT22;48641;51.676;5.808;2023-04-24T01:35:31;16.50;65.20
62583;DHT22;48641;51.676;5.808;2023-04-24T01:37:57;16.50;65.20
62583;DHT22;48641;51.676;5.808;2023-04-24T01:40:23;16.50;65.10
62583;DHT22;48641;51.676;5.808;2023-04-24T01:42:48;16.50;65.10
62583;DHT22;48641;51.676;5.808;2023-04-24T01:45:14;16.50;65.10
62583;DHT22;48641;51.676;5.808;2023-04-24T01:47:40;16.50;65.10
62583;DHT22;48641;51.676;5.808;2023-04-24T01:50:06;16.50;65.10
62583;DHT22;48641;51.676;5.808;2023-04-24T01:52:32;16.50;65.10
62583;DHT22;48641;51.676;5.808;2023-04-24T01:55:05;16.50;65.10
62583;DHT22;48641;51.676;5.808;2023-04-24T01:57:31;16.50;65.20
62583;DHT22;48641;51.676;5.808;2023-04-24T01:59:57;16.50;65.10
62583;DHT22;48641;51.676;5.808;2023-04-24T02:02:23;16.50;65.10
62583;DHT22;48641;51.676;5.808;2023-04-24T02:04:55;16.50;65.10
62583;DHT22;48641;51.676;5.808;2023-04-24T02:07:21;16.50;65.10
62583;DHT22;48641;51.676;5.808;2023-04-24T02:09:47;16.50;65.10
62583;DHT22;48641;51.676;5.808;2023-04-24T02:12:13;16.50;65.10
62583;DHT22;48641;51.676;5.808;2023-04-24T02:14:39;16.50;65.20
62583;DHT22;48641;51.676;5.808;2023-04-24T02:17:04;16.50;65.10
62583;DHT22;48641;51.676;5.808;2023-04-24T02:19:30;16.50;65.20
62583;DHT22;48641;51.676;5.808;2023-04-24T02:21:56;16.50;65.10
62583;DHT22;48641;51.676;5.808;2023-04-24T02:24:22;16.50;65.10
62583;DHT22;48641;51.676;5.808;2023-04-24T02:26:47;16.50;65.10
62583;DHT22;48641;51.676;5.808;2023-04-24T02:29:13;16.50;65.10
62583;DHT22;48641;51.676;5.808;2023-04-24T02:31:38;16.50;65.10
62583;DHT22;48641;51.676;5.808;2023-04-24T02:34:04;16.40;65.10
62583;DHT22;48641;51.676;5.808;2023-04-24T02:36:29;16.40;65.10
62583;DHT22;48641;51.676;5.808;2023-04-24T02:38:55;16.40;65.10
62583;DHT22;48641;51.676;5.808;2023-04-24T02:41:21;16.50;65.20
62583;DHT22;48641;51.676;5.808;2023-04-24T02:43:46;16.40;65.10
62583;DHT22;48641;51.676;5.808;2023-04-24T02:46:12;16.40;65.10
62583;DHT22;48641;51.676;5.808;2023-04-24T02:48:38;16.40;65.10
62583;DHT22;48641;51.676;5.808;2023-04-24T02:51:04;16.40;65.20
62583;DHT22;48641;51.676;5.808;2023-04-24T02:53:29;16.40;65.20
62583;DHT22;48641;51.676;5.808;2023-04-24T02:55:56;16.40;65.20
62583;DHT22;48641;51.676;5.808;2023-04-24T02:58:22;16.50;65.20
62583;DHT22;48641;51.676;5.808;2023-04-24T03:00:47;16.40;65.00
62583;DHT22;48641;51.676;5.808;2023-04-24T03:03:14;16.40;65.00
62583;DHT22;48641;51.676;5.808;2023-04-24T03:05:40;16.40;65.00
62583;DHT22;48641;51.676;5.808;2023-04-24T03:08:06;16.40;65.10
62583;DHT22;48641;51.676;5.808;2023-04-24T03:10:31;16.40;65.00
62583;DHT22;48641;51.676;5.808;2023-04-24T03:12:57;16.40;65.00
62583;DHT22;48641;51.676;5.808;2023-04-24T03:15:23;16.50;65.10
62583;DHT22;48641;51.676;5.808;2023-04-24T03:17:48;16.40;65.10
62583;DHT22;48641;51.676;5.808;2023-04-24T03:20:14;16.40;65.00
62583;DHT22;48641;51.676;5.808;2023-04-24T03:22:40;16.40;65.00
62583;DHT22;48641;51.676;5.808;2023-04-24T03:25:06;16.40;65.00
62583;DHT22;48641;51.676;5.808;2023-04-24T03:27:34;16.40;65.00
62583;DHT22;48641;51.676;5.808;2023-04-24T03:30:00;16.40;65.20
62583;DHT22;48641;51.676;5.808;2023-04-24T03:32:26;16.40;65.00
62583;DHT22;48641;51.676;5.808;2023-04-24T03:34:51;16.40;65.00
62583;DHT22;48641;51.676;5.808;2023-04-24T03:37:17;16.40;65.00
62583;DHT22;48641;51.676;5.808;2023-04-24T03:39:43;16.40;65.00
62583;DHT22;48641;51.676;5.808;2023-04-24T03:42:09;16.40;65.00
62583;DHT22;48641;51.676;5.808;2023-04-24T03:44:35;16.40;65.00
62583;DHT22;48641;51.676;5.808;2023-04-24T03:47:00;16.40;65.00
62583;DHT22;48641;51.676;5.808;2023-04-24T03:49:26;16.40;65.00
62583;DHT22;48641;51.676;5.808;2023-04-24T03:51:52;16.40;65.00
62583;DHT22;48641;51.676;5.808;2023-04-24T03:54:18;16.40;65.00
62583;DHT22;48641;51.676;5.808;2023-04-24T03:56:44;16.30;64.90
62583;DHT22;48641;51.676;5.808;2023-04-24T03:59:09;16.40;65.00
62583;DHT22;48641;51.676;5.808;2023-04-24T04:01:36;16.40;65.00
62583;DHT22;48641;51.676;5.808;2023-04-24T04:04:03;16.40;65.00
62583;DHT22;48641;51.676;5.808;2023-04-24T04:06:29;16.30;64.90
62583;DHT22;48641;51.676;5.808;2023-04-24T04:08:56;16.30;65.00
62583;DHT22;48641;51.676;5.808;2023-04-24T04:11:22;16.30;64.90
62583;DHT22;48641;51.676;5.808;2023-04-24T04:13:47;16.30;64.90
62583;DHT22;48641;51.676;5.808;2023-04-24T04:16:13;16.30;65.00
62583;DHT22;48641;51.676;5.808;2023-04-24T04:18:39;16.40;65.00
62583;DHT22;48641;51.676;5.808;2023-04-24T04:21:05;16.30;65.00
62583;DHT22;48641;51.676;5.808;2023-04-24T04:23:30;16.30;64.90
62583;DHT22;48641;51.676;5.808;2023-04-24T04:25:57;16.30;64.90
62583;DHT22;48641;51.676;5.808;2023-04-24T04:28:23;16.30;64.90
62583;DHT22;48641;51.676;5.808;2023-04-24T04:30:50;16.30;65.00
62583;DHT22;48641;51.676;5.808;2023-04-24T04:33:19;16.30;65.00
62583;DHT22;48641;51.676;5.808;2023-04-24T04:35:45;16.30;65.10
62583;DHT22;48641;51.676;5.808;2023-04-24T04:38:14;16.30;65.00
62583;DHT22;48641;51.676;5.808;2023-04-24T04:40:40;16.30;65.00
62583;DHT22;48641;51.676;5.808;2023-04-24T04:43:06;16.30;65.00
62583;DHT22;48641;51.676;5.808;2023-04-24T04:45:31;16.30;64.90
62583;DHT22;48641;51.676;5.808;2023-04-24T04:47:58;16.30;64.90
62583;DHT22;48641;51.676;5.808;2023-04-24T04:50:26;16.30;64.90
62583;DHT22;48641;51.676;5.808;2023-04-24T04:52:52;16.30;64.80
62583;DHT22;48641;51.676;5.808;2023-04-24T04:55:18;16.30;64.80
62583;DHT22;48641;51.676;5.808;2023-04-24T04:57:45;16.30;64.80
62583;DHT22;48641;51.676;5.808;2023-04-24T05:00:11;16.30;64.90
62583;DHT22;48641;51.676;5.808;2023-04-24T05:02:38;16.30;64.80
62583;DHT22;48641;51.676;5.808;2023-04-24T05:05:04;16.30;64.80
62583;DHT22;48641;51.676;5.808;2023-04-24T05:07:31;16.30;64.80
62583;DHT22;48641;51.676;5.808;2023-04-24T05:09:56;16.30;64.80
62583;DHT22;48641;51.676;5.808;2023-04-24T05:12:22;16.30;64.80
62583;DHT22;48641;51.676;5.808;2023-04-24T05:14:47;16.30;64.80
62583;DHT22;48641;51.676;5.808;2023-04-24T05:17:13;16.30;64.80
62583;DHT22;48641;51.676;5.808;2023-04-24T05:19:39;16.20;64.80
62583;DHT22;48641;51.676;5.808;2023-04-24T05:22:04;16.20;64.80
62583;DHT22;48641;51.676;5.808;2023-04-24T05:24:33;16.20;64.80
62583;DHT22;48641;51.676;5.808;2023-04-24T05:26:59;16.20;64.80
62583;DHT22;48641;51.676;5.808;2023-04-24T05:29:25;16.30;64.80
62583;DHT22;48641;51.676;5.808;2023-04-24T05:31:51;16.20;64.80
62583;DHT22;48641;51.676;5.808;2023-04-24T05:34:17;16.20;64.80
62583;DHT22;48641;51.676;5.808;2023-04-24T05:36:43;16.20;64.80
62583;DHT22;48641;51.676;5.808;2023-04-24T05:39:09;16.20;64.80
62583;DHT22;48641;51.676;5.808;2023-04-24T05:41:34;16.20;65.80
62583;DHT22;48641;51.676;5.808;2023-04-24T05:44:00;16.20;64.90
62583;DHT22;48641;51.676;5.808;2023-04-24T05:46:26;16.20;64.80
62583;DHT22;48641;51.676;5.808;2023-04-24T05:48:51;16.20;64.80
62583;DHT22;48641;51.676;5.808;2023-04-24T05:51:17;16.20;64.90
62583;DHT22;48641;51.676;5.808;2023-04-24T05:53:42;16.20;64.90
62583;DHT22;48641;51.676;5.808;2023-04-24T05:56:08;16.20;64.90
62583;DHT22;48641;51.676;5.808;2023-04-24T05:58:34;16.20;64.90
62583;DHT22;48641;51.676;5.808;2023-04-24T06:00:59;16.20;64.90
62583;DHT22;48641;51.676;5.808;2023-04-24T06:03:27;16.20;65.00
62583;DHT22;48641;51.676;5.808;2023-04-24T06:05:53;16.20;64.90
62583;DHT22;48641;51.676;5.808;2023-04-24T06:08:19;16.20;65.00
62583;DHT22;48641;51.676;5.808;2023-04-24T06:10:44;16.20;64.90
62583;DHT22;48641;51.676;5.808;2023-04-24T06:13:10;16.10;64.90
62583;DHT22;48641;51.676;5.808;2023-04-24T06:15:36;16.10;65.00
62583;DHT22;48641;51.676;5.808;2023-04-24T06:18:02;16.20;65.00
62583;DHT22;48641;51.676;5.808;2023-04-24T06:20:28;16.20;65.00
62583;DHT22;48641;51.676;5.808;2023-04-24T06:22:54;16.20;65.00
62583;DHT22;48641;51.676;5.808;2023-04-24T06:25:19;16.20;65.00
62583;DHT22;48641;51.676;5.808;2023-04-24T06:27:45;16.20;65.00
62583;DHT22;48641;51.676;5.808;2023-04-24T06:30:11;16.20;65.00
62583;DHT22;48641;51.676;5.808;2023-04-24T06:32:37;16.20;65.00
62583;DHT22;48641;51.676;5.808;2023-04-24T06:35:03;16.20;65.00
62583;DHT22;48641;51.676;5.808;2023-04-24T06:37:29;16.20;64.90
62583;DHT22;48641;51.676;5.808;2023-04-24T06:39:55;16.20;64.90
62583;DHT22;48641;51.676;5.808;2023-04-24T06:42:21;16.20;64.90
62583;DHT22;48641;51.676;5.808;2023-04-24T06:44:47;16.20;64.80
62583;DHT22;48641;51.676;5.808;2023-04-24T06:47:13;16.20;64.90
62583;DHT22;48641;51.676;5.808;2023-04-24T06:49:42;16.10;64.80
62583;DHT22;48641;51.676;5.808;2023-04-24T06:52:08;16.10;64.80
62583;DHT22;48641;51.676;5.808;2023-04-24T06:54:33;16.10;64.80
62583;DHT22;48641;51.676;5.808;2023-04-24T06:57:00;16.10;64.80
62583;DHT22;48641;51.676;5.808;2023-04-24T06:59:27;16.10;64.80
62583;DHT22;48641;51.676;5.808;2023-04-24T07:01:54;16.10;64.90
62583;DHT22;48641;51.676;5.808;2023-04-24T07:04:20;16.10;64.90
62583;DHT22;48641;51.676;5.808;2023-04-24T07:06:45;16.10;64.90
62583;DHT22;48641;51.676;5.808;2023-04-24T07:09:11;16.10;64.90
62583;DHT22;48641;51.676;5.808;2023-04-24T07:11:39;16.10;64.90
62583;DHT22;48641;51.676;5.808;2023-04-24T07:14:06;16.10;64.90
62583;DHT22;48641;51.676;5.808;2023-04-24T07:16:32;16.10;64.90
62583;DHT22;48641;51.676;5.808;2023-04-24T07:18:57;16.10;64.90
62583;DHT22;48641;51.676;5.808;2023-04-24T07:21:23;16.10;64.80
62583;DHT22;48641;51.676;5.808;2023-04-24T07:23:48;16.10;64.90
62583;DHT22;48641;51.676;5.808;2023-04-24T07:26:14;16.10;64.90
62583;DHT22;48641;51.676;5.808;2023-04-24T07:28:40;16.10;64.90
62583;DHT22;48641;51.676;5.808;2023-04-24T07:31:06;16.10;64.90
62583;DHT22;48641;51.676;5.808;2023-04-24T07:33:32;16.10;64.90
62583;DHT22;48641;51.676;5.808;2023-04-24T07:35:58;16.10;64.90
62583;DHT22;48641;51.676;5.808;2023-04-24T07:38:24;16.10;64.90
62583;DHT22;48641;51.676;5.808;2023-04-24T07:40:51;16.10;64.90
62583;DHT22;48641;51.676;5.808;2023-04-24T07:43:17;16.10;64.90
62583;DHT22;48641;51.676;5.808;2023-04-24T07:45:43;16.00;64.80
62583;DHT22;48641;51.676;5.808;2023-04-24T07:48:09;16.10;65.00
62583;DHT22;48641;51.676;5.808;2023-04-24T07:50:35;16.10;64.90
62583;DHT22;48641;51.676;5.808;2023-04-24T07:53:02;16.10;64.90
62583;DHT22;48641;51.676;5.808;2023-04-24T07:55:27;16.00;64.90
62583;DHT22;48641;51.676;5.808;2023-04-24T07:57:53;16.10;64.90
62583;DHT22;48641;51.676;5.808;2023-04-24T08:00:19;16.00;64.80
62583;DHT22;48641;51.676;5.808;2023-04-24T08:02:45;16.00;64.80
62583;DHT22;48641;51.676;5.808;2023-04-24T08:05:10;16.10;64.90
62583;DHT22;48641;51.676;5.808;2023-04-24T08:07:36;16.00;64.90
62583;DHT22;48641;51.676;5.808;2023-04-24T08:10:02;16.00;64.90
62583;DHT22;48641;51.676;5.808;2023-04-24T08:12:31;16.00;64.80
62583;DHT22;48641;51.676;5.808;2023-04-24T08:14:56;16.00;64.80
62583;DHT22;48641;51.676;5.808;2023-04-24T08:17:23;16.00;64.90
62583;DHT22;48641;51.676;5.808;2023-04-24T08:19:49;16.00;64.80
62583;DHT22;48641;51.676;5.808;2023-04-24T08:22:17;16.00;64.80
62583;DHT22;48641;51.676;5.808;2023-04-24T08:24:42;16.10;64.90
62583;DHT22;48641;51.676;5.808;2023-04-24T08:27:09;16.00;64.80
62583;DHT22;48641;51.676;5.808;2023-04-24T08:29:35;16.00;64.80
62583;DHT22;48641;51.676;5.808;2023-04-24T08:32:00;16.00;64.80
62583;DHT22;48641;51.676;5.808;2023-04-24T08:34:26;16.00;65.80
62583;DHT22;48641;51.676;5.808;2023-04-24T08:36:51;16.00;64.80
62583;DHT22;48641;51.676;5.808;2023-04-24T08:39:20;16.10;64.90
62583;DHT22;48641;51.676;5.808;2023-04-24T08:41:48;16.00;64.80
62583;DHT22;48641;51.676;5.808;2023-04-24T08:44:14;16.00;64.80
62583;DHT22;48641;51.676;5.808;2023-04-24T08:46:42;16.00;64.90
62583;DHT22;48641;51.676;5.808;2023-04-24T08:49:08;16.00;64.80
62583;DHT22;48641;51.676;5.808;2023-04-24T08:51:34;16.00;64.80
62583;DHT22;48641;51.676;5.808;2023-04-24T08:54:02;16.00;64.80
62583;DHT22;48641;51.676;5.808;2023-04-24T08:56:29;16.00;64.80
62583;DHT22;48641;51.676;5.808;2023-04-24T08:58:56;16.00;64.80
62583;DHT22;48641;51.676;5.808;2023-04-24T09:01:24;16.00;64.90
62583;DHT22;48641;51.676;5.808;2023-04-24T09:03:50;16.00;64.80
62583;DHT22;48641;51.676;5.808;2023-04-24T09:06:18;16.00;64.80
62583;DHT22;48641;51.676;5.808;2023-04-24T09:08:45;16.00;64.80
62583;DHT22;48641;51.676;5.808;2023-04-24T09:11:12;16.00;64.80
62583;DHT22;48641;51.676;5.808;2023-04-24T09:13:37;16.00;64.80
62583;DHT22;48641;51.676;5.808;2023-04-24T09:16:03;16.00;64.80
62583;DHT22;48641;51.676;5.808;2023-04-24T09:18:29;16.00;64.80
62583;DHT22;48641;51.676;5.808;2023-04-24T09:23:29;16.00;64.80
62583;DHT22;48641;51.676;5.808;2023-04-24T09:25:56;16.00;64.90
62583;DHT22;48641;51.676;5.808;2023-04-24T09:28:40;15.90;64.90
62583;DHT22;48641;51.676;5.808;2023-04-24T09:31:12;16.00;64.80
62583;DHT22;48641;51.676;5.808;2023-04-24T09:33:39;15.90;64.80
62583;DHT22;48641;51.676;5.808;2023-04-24T09:36:05;15.90;64.80
62583;DHT22;48641;51.676;5.808;2023-04-24T09:38:38;15.90;64.90
62583;DHT22;48641;51.676;5.808;2023-04-24T09:41:08;15.90;64.90
62583;DHT22;48641;51.676;5.808;2023-04-24T09:43:38;16.00;64.90
62583;DHT22;48641;51.676;5.808;2023-04-24T09:46:07;15.90;64.90
62583;DHT22;48641;51.676;5.808;2023-04-24T09:48:36;15.90;64.80
62583;DHT22;48641;51.676;5.808;2023-04-24T09:51:03;15.90;64.90
62583;DHT22;48641;51.676;5.808;2023-04-24T09:53:30;15.90;64.90
62583;DHT22;48641;51.676;5.808;2023-04-24T09:56:01;15.90;64.80
62583;DHT22;48641;51.676;5.808;2023-04-24T09:58:28;15.90;64.90
62583;DHT22;48641;51.676;5.808;2023-04-24T10:00:55;15.90;64.80
62583;DHT22;48641;51.676;5.808;2023-04-24T10:03:24;16.00;64.90
62583;DHT22;48641;51.676;5.808;2023-04-24T10:05:51;16.00;64.80
62583;DHT22;48641;51.676;5.808;2023-04-24T10:08:17;15.90;64.80
62583;DHT22;48641;51.676;5.808;2023-04-24T10:10:45;15.90;64.80
62583;DHT22;48641;51.676;5.808;2023-04-24T10:13:12;15.90;64.80
62583;DHT22;48641;51.676;5.808;2023-04-24T10:15:39;16.00;65.90
62583;DHT22;48641;51.676;5.808;2023-04-24T10:18:06;15.90;64.80
62583;DHT22;48641;51.676;5.808;2023-04-24T10:20:32;15.90;64.80
62583;DHT22;48641;51.676;5.808;2023-04-24T10:22:59;16.00;64.90
62583;DHT22;48641;51.676;5.808;2023-04-24T10:25:33;15.90;64.80
62583;DHT22;48641;51.676;5.808;2023-04-24T10:28:01;16.00;64.80
62583;DHT22;48641;51.676;5.808;2023-04-24T10:30:29;15.90;64.70
62583;DHT22;48641;51.676;5.808;2023-04-24T10:32:55;15.90;64.70
62583;DHT22;48641;51.676;5.808;2023-04-24T10:35:22;15.90;64.80
62583;DHT22;48641;51.676;5.808;2023-04-24T10:37:54;15.90;64.70
62583;DHT22;48641;51.676;5.808;2023-04-24T10:40:33;15.90;64.80
62583;DHT22;48641;51.676;5.808;2023-04-24T10:43:01;15.90;64.70
62583;DHT22;48641;51.676;5.808;2023-04-24T10:45:27;15.90;64.80
62583;DHT22;48641;51.676;5.808;2023-04-24T10:50:52;15.90;64.70
62583;DHT22;48641;51.676;5.808;2023-04-24T10:53:22;15.90;64.70
62583;DHT22;48641;51.676;5.808;2023-04-24T10:56:18;15.90;64.80
62583;DHT22;48641;51.676;5.808;2023-04-24T10:58:45;15.90;64.90
62583;DHT22;48641;51.676;5.808;2023-04-24T11:01:28;15.90;64.90
62583;DHT22;48641;51.676;5.808;2023-04-24T11:03:59;15.90;64.90
62583;DHT22;48641;51.676;5.808;2023-04-24T11:06:29;15.80;64.80
62583;DHT22;48641;51.676;5.808;2023-04-24T11:09:08;15.90;64.80
62583;DHT22;48641;51.676;5.808;2023-04-24T11:11:36;15.90;64.80
62583;DHT22;48641;51.676;5.808;2023-04-24T11:14:05;15.90;64.80
62583;DHT22;48641;51.676;5.808;2023-04-24T11:16:33;15.90;64.80
62583;DHT22;48641;51.676;5.808;2023-04-24T11:26:54;15.90;64.80
62583;DHT22;48641;51.676;5.808;2023-04-24T11:29:20;15.80;64.80
62583;DHT22;48641;51.676;5.808;2023-04-24T11:31:47;15.80;64.80
62583;DHT22;48641;51.676;5.808;2023-04-24T11:34:17;15.80;64.90
62583;DHT22;48641;51.676;5.808;2023-04-24T11:36:44;15.80;64.80
62583;DHT22;48641;51.676;5.808;2023-04-24T11:39:11;15.80;64.80
62583;DHT22;48641;51.676;5.808;2023-04-24T11:41:37;15.80;64.70
62583;DHT22;48641;51.676;5.808;2023-04-24T11:44:05;15.80;64.90
62583;DHT22;48641;51.676;5.808;2023-04-24T11:46:31;15.90;64.80
62583;DHT22;48641;51.676;5.808;2023-04-24T11:48:57;15.90;64.80
62583;DHT22;48641;51.676;5.808;2023-04-24T11:51:24;15.90;64.80
62583;DHT22;48641;51.676;5.808;2023-04-24T11:53:56;15.80;64.70
62583;DHT22;48641;51.676;5.808;2023-04-24T11:56:23;15.90;64.70
62583;DHT22;48641;51.676;5.808;2023-04-24T11:58:52;15.90;64.70
62583;DHT22;48641;51.676;5.808;2023-04-24T12:01:19;15.90;64.70
62583;DHT22;48641;51.676;5.808;2023-04-24T12:03:48;15.90;64.70
62583;DHT22;48641;51.676;5.808;2023-04-24T12:06:16;15.90;64.70
62583;DHT22;48641;51.676;5.808;2023-04-24T12:08:41;15.90;64.70
62583;DHT22;48641;51.676;5.808;2023-04-24T12:11:10;15.90;64.70
62583;DHT22;48641;51.676;5.808;2023-04-24T12:13:37;15.80;64.70
62583;DHT22;48641;51.676;5.808;2023-04-24T12:16:03;15.80;64.70
62583;DHT22;48641;51.676;5.808;2023-04-24T12:18:30;15.80;64.60
62583;DHT22;48641;51.676;5.808;2023-04-24T12:21:14;15.80;64.60
62583;DHT22;48641;51.676;5.808;2023-04-24T12:23:43;15.90;64.60
62583;DHT22;48641;51.676;5.808;2023-04-24T12:26:10;15.80;64.60
62583;DHT22;48641;51.676;5.808;2023-04-24T12:28:37;15.80;64.60
62583;DHT22;48641;51.676;5.808;2023-04-24T12:31:02;15.80;64.60
62583;DHT22;48641;51.676;5.808;2023-04-24T12:33:33;15.80;64.70
62583;DHT22;48641;51.676;5.808;2023-04-24T12:35:59;15.80;64.70
62583;DHT22;48641;51.676;5.808;2023-04-24T12:38:28;15.80;64.70
62583;DHT22;48641;51.676;5.808;2023-04-24T12:41:10;15.80;64.70
62583;DHT22;48641;51.676;5.808;2023-04-24T12:43:35;15.80;64.70
62583;DHT22;48641;51.676;5.808;2023-04-24T12:46:01;15.80;64.70
62583;DHT22;48641;51.676;5.808;2023-04-24T12:48:27;15.80;64.70
62583;DHT22;48641;51.676;5.808;2023-04-24T12:50:53;15.80;64.80
62583;DHT22;48641;51.676;5.808;2023-04-24T12:53:20;15.80;64.70
62583;DHT22;48641;51.676;5.808;2023-04-24T12:55:46;15.80;64.70
62583;DHT22;48641;51.676;5.808;2023-04-24T12:58:18;15.80;64.70
62583;DHT22;48641;51.676;5.808;2023-04-24T13:00:44;15.80;64.70
62583;DHT22;48641;51.676;5.808;2023-04-24T13:03:11;15.80;64.70
62583;DHT22;48641;51.676;5.808;2023-04-24T13:05:37;15.80;64.70
62583;DHT22;48641;51.676;5.808;2023-04-24T13:08:02;15.80;64.70
62583;DHT22;48641;51.676;5.808;2023-04-24T13:10:28;15.80;64.60
62583;DHT22;48641;51.676;5.808;2023-04-24T13:12:54;15.80;64.60
62583;DHT22;48641;51.676;5.808;2023-04-24T13:15:20;15.80;64.60
62583;DHT22;48641;51.676;5.808;2023-04-24T13:17:45;15.80;64.60
62583;DHT22;48641;51.676;5.808;2023-04-24T13:20:11;15.80;64.60
62583;DHT22;48641;51.676;5.808;2023-04-24T13:22:36;15.80;64.70
62583;DHT22;48641;51.676;5.808;2023-04-24T13:25:02;15.80;64.70
62583;DHT22;48641;51.676;5.808;2023-04-24T13:27:28;15.80;64.70
62583;DHT22;48641;51.676;5.808;2023-04-24T13:29:54;15.80;64.70
62583;DHT22;48641;51.676;5.808;2023-04-24T13:32:20;15.80;64.70
62583;DHT22;48641;51.676;5.808;2023-04-24T13:34:45;15.80;64.70
62583;DHT22;48641;51.676;5.808;2023-04-24T13:37:11;15.80;64.70
62583;DHT22;48641;51.676;5.808;2023-04-24T13:39:36;15.80;64.70
62583;DHT22;48641;51.676;5.808;2023-04-24T13:42:02;15.80;64.90
62583;DHT22;48641;51.676;5.808;2023-04-24T13:44:28;15.80;64.90
62583;DHT22;48641;51.676;5.808;2023-04-24T13:46:54;15.80;64.90
62583;DHT22;48641;51.676;5.808;2023-04-24T13:49:23;15.80;64.80
62583;DHT22;48641;51.676;5.808;2023-04-24T13:51:50;15.80;64.90
62583;DHT22;48641;51.676;5.808;2023-04-24T13:54:16;15.80;64.90
62583;DHT22;48641;51.676;5.808;2023-04-24T13:56:41;15.80;64.90
62583;DHT22;48641;51.676;5.808;2023-04-24T13:59:07;15.90;64.90
62583;DHT22;48641;51.676;5.808;2023-04-24T14:01:34;15.90;64.80
62583;DHT22;48641;51.676;5.808;2023-04-24T14:03:59;15.90;64.80
62583;DHT22;48641;51.676;5.808;2023-04-24T14:06:25;15.90;64.80
62583;DHT22;48641;51.676;5.808;2023-04-24T14:08:51;15.90;64.70
62583;DHT22;48641;51.676;5.808;2023-04-24T14:11:18;15.90;64.70
62583;DHT22;48641;51.676;5.808;2023-04-24T14:13:44;15.90;64.70
62583;DHT22;48641;51.676;5.808;2023-04-24T14:16:10;15.90;64.70
62583;DHT22;48641;51.676;5.808;2023-04-24T14:18:36;15.90;64.70
62583;DHT22;48641;51.676;5.808;2023-04-24T14:21:03;15.90;64.70
62583;DHT22;48641;51.676;5.808;2023-04-24T14:23:28;15.90;64.70
62583;DHT22;48641;51.676;5.808;2023-04-24T14:25:54;15.90;64.80
62583;DHT22;48641;51.676;5.808;2023-04-24T14:28:21;15.90;64.70
62583;DHT22;48641;51.676;5.808;2023-04-24T14:30:47;15.90;64.70
62583;DHT22;48641;51.676;5.808;2023-04-24T14:33:13;15.90;64.70
62583;DHT22;48641;51.676;5.808;2023-04-24T14:35:40;15.90;64.70
62583;DHT22;48641;51.676;5.808;2023-04-24T14:38:07;15.90;64.70
62583;DHT22;48641;51.676;5.808;2023-04-24T14:40:33;15.90;64.70
62583;DHT22;48641;51.676;5.808;2023-04-24T14:42:58;15.90;64.70
62583;DHT22;48641;51.676;5.808;2023-04-24T14:45:25;15.90;64.70
62583;DHT22;48641;51.676;5.808;2023-04-24T14:47:51;15.90;64.70
62583;DHT22;48641;51.676;5.808;2023-04-24T14:50:16;15.80;64.70
62583;DHT22;48641;51.676;5.808;2023-04-24T14:52:42;15.80;64.70
62583;DHT22;48641;51.676;5.808;2023-04-24T14:55:08;15.80;64.70
62583;DHT22;48641;51.676;5.808;2023-04-24T14:57:34;15.80;64.70
62583;DHT22;48641;51.676;5.808;2023-04-24T15:00:01;15.80;64.70
62583;DHT22;48641;51.676;5.808;2023-04-24T15:02:27;15.80;64.70
62583;DHT22;48641;51.676;5.808;2023-04-24T15:04:52;15.80;64.70
62583;DHT22;48641;51.676;5.808;2023-04-24T15:07:18;15.80;64.70
62583;DHT22;48641;51.676;5.808;2023-04-24T15:09:43;15.80;64.70
62583;DHT22;48641;51.676;5.808;2023-04-24T15:12:09;15.80;64.80
62583;DHT22;48641;51.676;5.808;2023-04-24T15:14:35;15.80;64.70
62583;DHT22;48641;51.676;5.808;2023-04-24T15:17:00;15.80;64.70
62583;DHT22;48641;51.676;5.808;2023-04-24T15:19:26;15.80;64.70
62583;DHT22;48641;51.676;5.808;2023-04-24T15:21:52;15.80;64.70
62583;DHT22;48641;51.676;5.808;2023-04-24T15:24:17;15.80;64.70
62583;DHT22;48641;51.676;5.808;2023-04-24T15:26:43;15.80;64.70
62583;DHT22;48641;51.676;5.808;2023-04-24T15:29:08;15.80;64.70
62583;DHT22;48641;51.676;5.808;2023-04-24T15:31:34;15.80;64.70
62583;DHT22;48641;51.676;5.808;2023-04-24T15:34:00;15.80;64.70
62583;DHT22;48641;51.676;5.808;2023-04-24T15:36:26;15.80;64.70
62583;DHT22;48641;51.676;5.808;2023-04-24T15:38:51;15.80;64.70